createdAt,value
2024-04-09T00:02:54.734Z,70.80
2024-04-09T00:06:16.880Z,68.60
2024-04-09T00:09:41.447Z,69.80
2024-04-09T00:13:03.595Z,70.40
2024-04-09T00:16:29.069Z,66.10
2024-04-09T00:19:52.452Z,64.10
2024-04-09T00:23:14.219Z,62.20
2024-04-09T00:26:38.594Z,60.70
2024-04-09T00:30:00.407Z,58.40
2024-04-09T00:33:22.327Z,57.90
2024-04-09T00:36:44.269Z,58.10
2024-04-09T00:40:06.771Z,57.70
2024-04-09T00:43:31.171Z,57.70
2024-04-09T00:46:52.937Z,58.00
2024-04-09T00:50:14.759Z,59.20
2024-04-09T00:53:37.037Z,60.60
2024-04-09T00:56:58.988Z,62.00
2024-04-09T01:00:23.524Z,61.60
2024-04-09T01:03:45.644Z,61.80
2024-04-09T01:07:07.554Z,63.10
2024-04-09T01:10:29.354Z,62.70
2024-04-09T01:13:51.154Z,66.40
2024-04-09T01:17:15.618Z,64.80
2024-04-09T01:20:37.447Z,66.20
2024-04-09T01:24:01.919Z,64.60
2024-04-09T01:27:23.786Z,62.00
2024-04-09T01:30:45.648Z,63.70
2024-04-09T01:34:07.758Z,63.70
2024-04-09T01:37:29.623Z,62.20
2024-04-09T01:40:54.007Z,66.90
2024-04-09T01:44:15.816Z,67.50
2024-04-09T01:47:37.689Z,66.30
2024-04-09T01:50:59.589Z,67.30
2024-04-09T01:54:21.426Z,70.80
2024-04-09T01:57:45.865Z,69.10
2024-04-09T02:01:07.973Z,65.20
2024-04-09T02:04:29.913Z,67.70
2024-04-09T02:07:51.762Z,69.20
2024-04-09T02:11:13.597Z,69.00
2024-04-09T02:14:38.102Z,68.80
2024-04-09T02:17:59.957Z,70.40
2024-04-09T02:21:22.064Z,71.00
2024-04-09T02:24:43.954Z,72.70
2024-04-09T02:28:05.842Z,70.70
2024-04-09T02:31:30.382Z,70.00
2024-04-09T02:34:52.209Z,73.00
2024-04-09T02:38:14.017Z,72.90
2024-04-09T02:41:35.783Z,72.00
2024-04-09T02:44:58.435Z,71.20
2024-04-09T02:48:22.979Z,73.10
2024-04-09T02:51:44.901Z,74.70
2024-04-09T02:55:06.941Z,73.20
2024-04-09T02:58:28.887Z,73.00
2024-04-09T03:01:50.794Z,74.60
2024-04-09T03:05:15.297Z,73.20
2024-04-09T03:08:37.203Z,73.10
2024-04-09T03:12:01.313Z,73.00
2024-04-09T03:15:24.090Z,70.60
2024-04-09T03:18:46.499Z,72.20
2024-04-09T03:22:11.067Z,74.20
2024-04-09T03:25:32.844Z,73.30
2024-04-09T03:28:54.645Z,74.10
2024-04-09T03:32:16.475Z,75.00
2024-04-09T03:35:38.236Z,72.20
2024-04-09T03:39:02.683Z,75.30
2024-04-09T03:42:24.566Z,74.90
2024-04-09T03:45:59.010Z,75.50
2024-04-09T03:49:21.072Z,76.30
2024-04-09T03:52:42.898Z,75.30
2024-04-09T03:56:07.675Z,74.50
2024-04-09T03:59:29.471Z,74.30
2024-04-09T04:02:51.277Z,74.20
2024-04-09T04:06:13.510Z,75.20
2024-04-09T04:09:35.405Z,77.40
2024-04-09T04:12:59.775Z,78.80
2024-04-09T04:16:21.562Z,80.30
2024-04-09T04:19:43.364Z,79.70
2024-04-09T04:23:05.151Z,80.70
2024-04-09T04:26:27.621Z,81.40
2024-04-09T04:29:52.082Z,83.50
2024-04-09T04:33:13.967Z,85.10
2024-04-09T04:36:35.879Z,86.10
2024-04-09T04:39:57.737Z,87.20
2024-04-09T04:43:19.520Z,88.20
2024-04-09T04:46:43.935Z,88.60
2024-04-09T04:50:06.124Z,88.90
2024-04-09T04:53:27.921Z,90.00
2024-04-09T04:56:49.695Z,90.60
2024-04-09T05:00:11.677Z,90.50
2024-04-09T05:03:36.206Z,90.50
2024-04-09T05:06:58.022Z,89.60
2024-04-09T05:10:19.846Z,90.40
2024-04-09T05:13:41.625Z,90.60
2024-04-09T05:17:03.481Z,90.30
2024-04-09T05:20:27.895Z,91.10
2024-04-09T05:23:49.665Z,90.80
2024-04-09T05:27:11.494Z,90.70
2024-04-09T05:30:33.368Z,89.80
2024-04-09T05:33:55.277Z,88.30
2024-04-09T05:37:19.781Z,89.30
2024-04-09T05:40:41.656Z,87.00
2024-04-09T05:44:03.495Z,87.60
2024-04-09T05:47:25.373Z,87.20
2024-04-09T05:50:47.234Z,87.10
2024-04-09T05:54:11.633Z,85.90
2024-04-09T05:57:33.550Z,87.40
2024-04-09T06:00:55.626Z,87.60
2024-04-09T06:04:17.800Z,84.00
2024-04-09T06:07:39.844Z,81.00
2024-04-09T06:11:04.347Z,79.10
2024-04-09T06:14:26.142Z,77.10
2024-04-09T06:17:48.114Z,77.10
2024-04-09T06:21:10.052Z,78.20
2024-04-09T06:24:31.866Z,77.60
2024-04-09T06:27:56.322Z,79.10
2024-04-09T06:31:18.306Z,77.40
2024-04-09T06:34:40.110Z,76.80
2024-04-09T06:38:01.931Z,77.40
2024-04-09T06:41:23.687Z,76.80
2024-04-09T06:44:48.049Z,76.70
2024-04-09T06:48:09.909Z,72.90
2024-04-09T06:51:31.732Z,67.60
2024-04-09T06:54:53.568Z,66.80
2024-04-09T06:58:15.401Z,66.70
2024-04-09T07:01:39.995Z,65.00
2024-04-09T07:05:01.840Z,62.20
2024-04-09T07:08:23.651Z,60.00
2024-04-09T07:11:45.927Z,61.50
2024-04-09T07:15:08.107Z,60.00
2024-04-09T07:18:32.611Z,59.10
2024-04-09T07:21:54.552Z,57.50
2024-04-09T07:25:16.374Z,57.80
2024-04-09T07:28:38.185Z,61.00
2024-04-09T07:31:59.989Z,61.90
2024-04-09T07:35:24.414Z,66.40
2024-04-09T07:38:46.201Z,70.80
2024-04-09T07:42:08.323Z,72.90
2024-04-09T07:45:30.194Z,78.70
2024-04-09T07:48:52.169Z,81.00
2024-04-09T07:52:16.668Z,84.30
2024-04-09T07:55:38.595Z,86.70
2024-04-09T07:59:00.409Z,88.10
2024-04-09T08:02:22.433Z,89.40
2024-04-09T08:05:44.347Z,91.10
2024-04-09T08:09:08.940Z,92.20
2024-04-09T08:12:31.060Z,92.80
2024-04-09T08:15:52.931Z,93.30
2024-04-09T08:19:14.879Z,94.80
2024-04-09T08:22:36.730Z,95.90
2024-04-09T08:26:01.232Z,95.80
2024-04-09T08:29:23.020Z,94.60
2024-04-09T08:32:45.558Z,94.40
2024-04-09T08:36:07.602Z,94.10
2024-04-09T08:39:29.606Z,94.20
2024-04-09T08:43:00.389Z,94.80
2024-04-09T08:46:22.532Z,95.10
2024-04-09T08:49:44.841Z,95.40
2024-04-09T08:53:07.335Z,95.90
2024-04-09T08:56:29.239Z,96.30
2024-04-09T08:59:53.716Z,96.40
2024-04-09T09:03:15.733Z,96.80
2024-04-09T09:06:50.376Z,95.80
2024-04-09T09:10:13.272Z,94.70
2024-04-09T09:13:35.367Z,93.70
2024-04-09T09:17:03.783Z,93.40
2024-04-09T09:20:29.102Z,93.80
2024-04-09T09:23:59.258Z,93.70
2024-04-09T09:27:22.264Z,93.50
2024-04-09T09:30:45.125Z,92.50
2024-04-09T09:34:14.404Z,93.00
2024-04-09T09:37:36.587Z,93.40
2024-04-09T09:41:00.623Z,92.80
2024-04-09T09:44:22.454Z,93.10
2024-04-09T09:47:44.669Z,92.70
2024-04-09T09:51:09.322Z,92.00
2024-04-09T09:54:31.299Z,92.30
2024-04-09T09:57:56.358Z,92.30
2024-04-09T10:01:21.277Z,92.20
2024-04-09T10:04:44.947Z,91.10
2024-04-09T10:08:17.988Z,90.00
2024-04-09T10:11:43.013Z,90.20
2024-04-09T10:15:05.568Z,90.20
2024-04-09T10:18:28.237Z,89.80
2024-04-09T10:21:51.013Z,90.10
2024-04-09T10:25:18.723Z,90.20
2024-04-09T10:28:40.574Z,88.90
2024-04-09T10:32:12.475Z,88.90
2024-04-09T10:35:34.445Z,88.00
2024-04-09T10:38:56.882Z,87.70
2024-04-09T10:42:21.574Z,88.50
2024-04-09T10:45:52.455Z,90.30
2024-04-09T10:49:22.141Z,90.80
2024-04-09T10:52:46.211Z,90.70
2024-04-09T10:56:08.018Z,91.10
2024-04-09T10:59:32.640Z,89.40
2024-04-09T11:02:54.483Z,90.70
2024-04-09T11:06:16.576Z,90.50
2024-04-09T11:09:38.668Z,90.30
2024-04-09T11:13:00.599Z,91.30
2024-04-09T11:16:25.030Z,90.60
2024-04-09T11:19:50.193Z,90.00
2024-04-09T11:23:12.561Z,89.30
2024-04-09T11:26:35.021Z,88.50
2024-04-09T11:29:56.891Z,89.60
2024-04-09T11:33:21.513Z,90.60
2024-04-09T11:36:46.782Z,91.20
2024-04-09T11:40:08.918Z,90.90
2024-04-09T11:43:31.633Z,91.30
2024-04-09T11:46:53.589Z,91.50
2024-04-09T11:50:18.241Z,92.00
2024-04-09T11:53:45.435Z,92.80
2024-04-09T11:57:07.587Z,92.60
2024-04-09T12:00:31.175Z,93.30
2024-04-09T12:03:53.498Z,92.60
2024-04-09T12:07:17.961Z,93.00
2024-04-09T12:10:40.109Z,92.30
2024-04-09T12:14:01.941Z,91.30
2024-04-09T12:17:23.898Z,92.20
2024-04-09T12:20:45.813Z,92.00
2024-04-09T12:24:11.719Z,91.90
2024-04-09T12:27:33.804Z,92.10
2024-04-09T12:30:56.083Z,91.90
2024-04-09T12:34:18.361Z,92.10
2024-04-09T12:37:40.421Z,92.70
2024-04-09T12:41:04.829Z,92.40
2024-04-09T12:44:26.607Z,92.70
2024-04-09T12:47:48.992Z,92.70
2024-04-09T12:51:10.964Z,92.10
2024-04-09T12:54:32.988Z,92.30
2024-04-09T12:57:59.001Z,92.80
2024-04-09T13:01:30.428Z,92.10
2024-04-09T13:04:53.390Z,91.50
2024-04-09T13:08:15.557Z,92.00
2024-04-09T13:11:39.729Z,91.90
2024-04-09T13:18:29.512Z,92.70
2024-04-09T13:21:51.611Z,92.90
2024-04-09T13:25:13.396Z,93.10
2024-04-09T13:28:37.343Z,93.70
2024-04-09T13:32:03.025Z,94.20
2024-04-09T13:35:24.896Z,92.90
2024-04-09T13:38:47.015Z,92.60
2024-04-09T13:42:08.806Z,92.30
2024-04-09T13:45:32.082Z,91.50
2024-04-09T13:48:56.550Z,91.90
2024-04-09T13:52:18.453Z,91.90
2024-04-09T13:55:40.297Z,90.60
2024-04-09T13:59:02.177Z,90.40
2024-04-09T14:02:24.491Z,88.20
2024-04-09T14:05:49.181Z,88.60
2024-04-09T14:09:11.273Z,90.00
2024-04-09T14:12:34.087Z,90.20
2024-04-09T14:15:56.615Z,90.20
2024-04-09T14:19:19.067Z,90.60
2024-04-09T14:22:44.296Z,90.70
2024-04-09T14:26:09.832Z,90.60
2024-04-09T14:29:32.746Z,91.30
2024-04-09T14:32:54.679Z,91.40
2024-04-09T14:36:16.524Z,91.90
2024-04-09T14:39:41.098Z,93.10
2024-04-09T14:43:03.024Z,94.00
2024-04-09T14:46:24.869Z,95.10
2024-04-09T14:49:46.757Z,93.40
2024-04-09T14:53:10.041Z,92.70
2024-04-09T14:56:34.574Z,93.30
2024-04-09T15:00:00.523Z,92.40
2024-04-09T15:03:25.195Z,92.50
2024-04-09T15:06:48.146Z,92.40
2024-04-09T15:10:10.316Z,92.10
2024-04-09T15:13:35.042Z,92.00
2024-04-09T15:16:57.557Z,92.40
2024-04-09T15:20:19.772Z,91.90
2024-04-09T15:23:41.990Z,91.60
2024-04-09T15:27:04.887Z,92.10
2024-04-09T15:30:29.489Z,92.10
2024-04-09T15:33:53.513Z,92.20
2024-04-09T15:37:15.669Z,92.60
2024-04-09T15:40:37.491Z,92.20
2024-04-09T15:43:59.374Z,91.90
2024-04-09T15:47:24.118Z,91.10
2024-04-09T15:50:46.172Z,89.60
2024-04-09T15:54:07.972Z,88.40
2024-04-09T15:57:30.359Z,87.20
2024-04-09T16:00:52.144Z,85.90
2024-04-09T16:04:16.769Z,87.10
2024-04-09T16:07:39.163Z,88.20
2024-04-09T16:11:01.070Z,87.60
2024-04-09T16:14:22.979Z,86.90
2024-04-09T16:17:46.187Z,87.30
2024-04-09T16:21:10.671Z,87.60
2024-04-09T16:24:32.918Z,87.40
2024-04-09T16:27:56.337Z,87.10
2024-04-09T16:31:18.286Z,88.20
2024-04-09T16:34:40.134Z,90.40
2024-04-09T16:38:04.766Z,91.50
2024-04-09T16:41:56.415Z,92.30
2024-04-09T16:45:18.869Z,93.30
2024-04-09T16:48:40.780Z,93.90
2024-04-09T16:52:02.669Z,94.70
2024-04-09T16:55:27.064Z,95.50
2024-04-09T16:58:48.844Z,94.90
2024-04-09T17:02:10.652Z,94.90
2024-04-09T17:05:32.545Z,94.90
2024-04-09T17:08:54.525Z,95.10
2024-04-09T17:12:18.982Z,95.20
2024-04-09T17:15:40.913Z,95.00
2024-04-09T17:19:02.789Z,95.00
2024-04-09T17:22:24.636Z,95.10
2024-04-09T17:25:46.579Z,94.80
2024-04-09T17:29:11.121Z,94.50
2024-04-09T17:32:34.570Z,94.70
2024-04-09T17:35:56.678Z,94.80
2024-04-09T17:39:18.497Z,94.10
2024-04-09T17:42:40.268Z,94.50
2024-04-09T17:46:04.730Z,94.20
2024-04-09T17:49:26.760Z,93.60
2024-04-09T17:52:48.893Z,93.70
2024-04-09T17:56:12.287Z,93.90
2024-04-09T17:59:34.591Z,93.20
2024-04-09T18:02:59.250Z,93.40
2024-04-09T18:06:21.302Z,93.80
2024-04-09T18:09:43.114Z,94.30
2024-04-09T18:13:04.895Z,94.30
2024-04-09T18:16:26.675Z,94.20
2024-04-09T18:19:51.208Z,94.50
2024-04-09T18:23:13.060Z,94.30
2024-04-09T18:26:34.998Z,94.20
2024-04-09T18:29:57.255Z,94.10
2024-04-09T18:33:19.143Z,94.00
2024-04-09T18:36:43.749Z,94.10
2024-04-09T18:40:06.003Z,94.40
2024-04-09T18:43:28.146Z,94.20
2024-04-09T18:46:50.013Z,94.20
2024-04-09T18:50:13.091Z,94.80
2024-04-09T18:53:37.730Z,94.80
2024-04-09T18:56:59.538Z,94.70
2024-04-09T19:00:21.324Z,94.50
2024-04-09T19:03:43.178Z,94.70
2024-04-09T19:07:05.085Z,94.90
2024-04-09T19:10:30.324Z,95.10
2024-04-09T19:13:52.175Z,95.40
2024-04-09T19:17:14.234Z,95.20
2024-04-09T19:20:36.693Z,94.80
2024-04-09T19:23:58.814Z,95.30
2024-04-09T19:27:23.266Z,95.50
2024-04-09T19:30:45.015Z,95.70
2024-04-09T19:34:08.678Z,95.50
2024-04-09T19:37:31.504Z,95.90
2024-04-09T19:40:53.357Z,96.00
2024-04-09T19:44:19.616Z,95.80
2024-04-09T19:47:41.978Z,96.40
2024-04-09T19:51:04.094Z,96.50
2024-04-09T19:54:26.055Z,96.30
2024-04-09T19:57:47.885Z,96.70
2024-04-09T20:01:12.412Z,96.80
2024-04-09T20:04:34.974Z,96.80
2024-04-09T20:07:56.869Z,96.70
2024-04-09T20:11:19.428Z,97.20
2024-04-09T20:14:41.427Z,97.60
2024-04-09T20:18:07.124Z,97.30
2024-04-09T20:21:29.056Z,97.30
2024-04-09T20:24:50.923Z,97.50
2024-04-09T20:28:12.746Z,97.50
2024-04-09T20:31:34.628Z,97.80
2024-04-09T20:34:59.046Z,97.60
2024-04-09T20:38:20.917Z,97.90
2024-04-09T20:41:42.731Z,97.90
2024-04-09T20:45:05.602Z,98.00
2024-04-09T20:48:27.873Z,98.10
2024-04-09T20:51:53.889Z,98.10
2024-04-09T20:55:15.740Z,97.60
2024-04-09T20:58:37.536Z,97.90
2024-04-09T21:01:59.334Z,98.20
2024-04-09T21:05:21.233Z,98.10
2024-04-09T21:08:45.728Z,98.00
2024-04-09T21:12:07.880Z,98.10
2024-04-09T21:15:29.746Z,98.20
2024-04-09T21:18:52.009Z,98.50
2024-04-09T21:22:14.012Z,98.50
2024-04-09T21:25:38.579Z,98.40
2024-04-09T21:29:00.437Z,98.30
2024-04-09T21:32:22.377Z,98.40
2024-04-09T21:35:44.356Z,98.30
2024-04-09T21:39:06.371Z,98.50
2024-04-09T21:42:30.806Z,98.40
2024-04-09T21:45:55.177Z,98.70
2024-04-09T21:49:23.457Z,99.00
2024-04-09T21:52:45.535Z,99.20
2024-04-09T21:56:07.807Z,99.20
2024-04-09T21:59:32.355Z,99.40
2024-04-09T22:03:05.038Z,99.50
2024-04-09T22:06:28.072Z,99.60
2024-04-09T22:09:50.353Z,99.70
2024-04-09T22:13:12.371Z,99.90
2024-04-09T22:16:36.735Z,99.90
2024-04-09T22:19:58.517Z,99.90
2024-04-09T22:23:20.347Z,99.90
2024-04-09T22:26:42.387Z,99.90
2024-04-09T22:30:04.507Z,99.90
2024-04-09T22:33:29.735Z,99.90
2024-04-09T22:36:51.655Z,99.90
2024-04-09T22:40:13.650Z,99.90
2024-04-09T22:43:35.508Z,99.90
2024-04-09T22:46:57.515Z,99.90
2024-04-09T22:50:22.090Z,99.90
2024-04-09T22:53:43.934Z,99.90
2024-04-09T22:57:06.324Z,99.90
2024-04-09T23:00:28.349Z,99.90
2024-04-09T23:03:50.272Z,99.90
2024-04-09T23:07:15.548Z,99.90
2024-04-09T23:10:37.493Z,99.90
2024-04-09T23:13:59.415Z,99.90
2024-04-09T23:17:21.234Z,99.90
2024-04-09T23:20:43.165Z,99.90
2024-04-09T23:24:07.662Z,99.90
2024-04-09T23:27:29.459Z,99.90
2024-04-09T23:30:51.281Z,99.90
2024-04-09T23:34:13.230Z,99.90
2024-04-09T23:37:35.135Z,99.90
2024-04-09T23:41:00.831Z,99.90
2024-04-09T23:44:22.673Z,99.90
2024-04-09T23:47:44.681Z,99.90
2024-04-09T23:51:07.079Z,99.90
2024-04-09T23:54:28.876Z,99.90
2024-04-09T23:57:53.263Z,99.90
